sensor_id;sensor_type;location;lat;lon;timestamp;temperature;humidity
21762;DHT22;11203;50.870;20.682;2022-08-02T00:01:41;17.40;99.90
21762;DHT22;11203;50.870;20.682;2022-08-02T00:04:07;17.40;99.90
21762;DHT22;11203;50.870;20.682;2022-08-02T00:06:33;17.50;99.90
21762;DHT22;11203;50.870;20.682;2022-08-02T00:09:00;17.50;99.90
21762;DHT22;11203;50.870;20.682;2022-08-02T00:11:26;17.50;99.90
21762;DHT22;11203;50.870;20.682;2022-08-02T00:13:53;17.50;99.90
21762;DHT22;11203;50.870;20.682;2022-08-02T00:16:19;17.50;99.90
21762;DHT22;11203;50.870;20.682;2022-08-02T00:18:45;17.50;99.90
21762;DHT22;11203;50.870;20.682;2022-08-02T00:21:12;17.50;99.90
21762;DHT22;11203;50.870;20.682;2022-08-02T00:23:38;17.50;99.90
21762;DHT22;11203;50.870;20.682;2022-08-02T00:26:04;17.50;99.90
21762;DHT22;11203;50.870;20.682;2022-08-02T00:28:30;17.50;99.90
21762;DHT22;11203;50.870;20.682;2022-08-02T00:30:57;17.50;99.90
21762;DHT22;11203;50.870;20.682;2022-08-02T00:33:24;17.40;99.90
21762;DHT22;11203;50.870;20.682;2022-08-02T00:35:51;17.30;99.90
21762;DHT22;11203;50.870;20.682;2022-08-02T00:38:17;17.30;99.90
21762;DHT22;11203;50.870;20.682;2022-08-02T00:40:47;17.30;99.90
21762;DHT22;11203;50.870;20.682;2022-08-02T00:43:15;17.40;99.90
21762;DHT22;11203;50.870;20.682;2022-08-02T00:45:42;17.30;99.90
21762;DHT22;11203;50.870;20.682;2022-08-02T00:48:10;17.30;99.90
21762;DHT22;11203;50.870;20.682;2022-08-02T00:50:38;17.10;99.90
21762;DHT22;11203;50.870;20.682;2022-08-02T00:53:05;17.10;99.90
21762;DHT22;11203;50.870;20.682;2022-08-02T00:55:35;17.00;99.90
21762;DHT22;11203;50.870;20.682;2022-08-02T00:58:03;17.00;99.90
21762;DHT22;11203;50.870;20.682;2022-08-02T01:00:28;17.00;99.90
21762;DHT22;11203;50.870;20.682;2022-08-02T01:02:54;16.90;99.90
21762;DHT22;11203;50.870;20.682;2022-08-02T01:05:21;17.00;99.90
21762;DHT22;11203;50.870;20.682;2022-08-02T01:07:46;16.90;99.90
21762;DHT22;11203;50.870;20.682;2022-08-02T01:10:13;16.90;99.90
21762;DHT22;11203;50.870;20.682;2022-08-02T01:12:39;16.70;99.90
21762;DHT22;11203;50.870;20.682;2022-08-02T01:15:07;16.70;99.90
21762;DHT22;11203;50.870;20.682;2022-08-02T01:17:51;16.80;99.90
21762;DHT22;11203;50.870;20.682;2022-08-02T01:23:52;16.60;99.90
21762;DHT22;11203;50.870;20.682;2022-08-02T01:29:43;16.40;99.90
21762;DHT22;11203;50.870;20.682;2022-08-02T01:32:14;16.50;99.90
21762;DHT22;11203;50.870;20.682;2022-08-02T01:34:55;16.60;99.90
21762;DHT22;11203;50.870;20.682;2022-08-02T01:37:38;16.70;99.90
21762;DHT22;11203;50.870;20.682;2022-08-02T01:40:11;16.70;99.90
21762;DHT22;11203;50.870;20.682;2022-08-02T01:42:44;16.70;99.90
21762;DHT22;11203;50.870;20.682;2022-08-02T01:45:12;16.70;99.90
21762;DHT22;11203;50.870;20.682;2022-08-02T01:47:41;16.80;99.90
21762;DHT22;11203;50.870;20.682;2022-08-02T01:50:13;16.70;99.90
21762;DHT22;11203;50.870;20.682;2022-08-02T01:52:46;16.80;99.90
21762;DHT22;11203;50.870;20.682;2022-08-02T01:55:19;16.80;99.90
21762;DHT22;11203;50.870;20.682;2022-08-02T01:57:57;16.80;99.90
21762;DHT22;11203;50.870;20.682;2022-08-02T02:00:29;16.80;99.90
21762;DHT22;11203;50.870;20.682;2022-08-02T02:02:58;16.80;99.90
21762;DHT22;11203;50.870;20.682;2022-08-02T02:05:27;16.80;99.90
21762;DHT22;11203;50.870;20.682;2022-08-02T02:07:57;16.80;99.90
21762;DHT22;11203;50.870;20.682;2022-08-02T02:10:29;16.80;99.90
21762;DHT22;11203;50.870;20.682;2022-08-02T02:13:00;16.80;99.90
21762;DHT22;11203;50.870;20.682;2022-08-02T02:15:30;16.70;99.90
21762;DHT22;11203;50.870;20.682;2022-08-02T02:17:57;16.80;99.90
21762;DHT22;11203;50.870;20.682;2022-08-02T02:20:25;16.80;99.90
21762;DHT22;11203;50.870;20.682;2022-08-02T02:22:51;16.90;99.90
21762;DHT22;11203;50.870;20.682;2022-08-02T02:25:21;16.80;99.90
21762;DHT22;11203;50.870;20.682;2022-08-02T02:27:59;16.90;99.90
21762;DHT22;11203;50.870;20.682;2022-08-02T02:30:29;16.80;99.90
21762;DHT22;11203;50.870;20.682;2022-08-02T02:32:58;16.80;99.90
21762;DHT22;11203;50.870;20.682;2022-08-02T02:35:31;16.80;99.90
21762;DHT22;11203;50.870;20.682;2022-08-02T02:38:10;16.80;99.90
21762;DHT22;11203;50.870;20.682;2022-08-02T02:40:39;16.90;99.90
21762;DHT22;11203;50.870;20.682;2022-08-02T02:43:07;16.90;99.90
21762;DHT22;11203;50.870;20.682;2022-08-02T02:45:37;16.90;99.90
21762;DHT22;11203;50.870;20.682;2022-08-02T02:48:05;16.90;99.90
21762;DHT22;11203;50.870;20.682;2022-08-02T02:50:32;17.00;99.90
21762;DHT22;11203;50.870;20.682;2022-08-02T02:52:59;16.90;99.90
21762;DHT22;11203;50.870;20.682;2022-08-02T02:55:26;16.90;99.90
21762;DHT22;11203;50.870;20.682;2022-08-02T02:57:54;16.90;99.90
21762;DHT22;11203;50.870;20.682;2022-08-02T03:00:21;17.00;99.90
21762;DHT22;11203;50.870;20.682;2022-08-02T03:03:08;17.00;99.90
21762;DHT22;11203;50.870;20.682;2022-08-02T03:05:35;17.10;99.90
21762;DHT22;11203;50.870;20.682;2022-08-02T03:08:02;17.10;99.90
21762;DHT22;11203;50.870;20.682;2022-08-02T03:10:28;17.10;99.90
21762;DHT22;11203;50.870;20.682;2022-08-02T03:12:55;17.20;99.90
21762;DHT22;11203;50.870;20.682;2022-08-02T03:15:26;17.10;99.90
21762;DHT22;11203;50.870;20.682;2022-08-02T03:17:52;17.10;99.90
21762;DHT22;11203;50.870;20.682;2022-08-02T03:20:19;17.10;99.90
21762;DHT22;11203;50.870;20.682;2022-08-02T03:22:47;17.10;99.90
21762;DHT22;11203;50.870;20.682;2022-08-02T03:25:14;17.00;99.90
21762;DHT22;11203;50.870;20.682;2022-08-02T03:27:41;17.10;99.90
21762;DHT22;11203;50.870;20.682;2022-08-02T03:30:09;17.10;99.90
21762;DHT22;11203;50.870;20.682;2022-08-02T03:32:38;17.10;99.90
21762;DHT22;11203;50.870;20.682;2022-08-02T03:35:06;17.10;99.90
21762;DHT22;11203;50.870;20.682;2022-08-02T03:37:35;17.10;99.90
21762;DHT22;11203;50.870;20.682;2022-08-02T03:40:06;17.10;99.90
21762;DHT22;11203;50.870;20.682;2022-08-02T03:42:33;17.10;99.90
21762;DHT22;11203;50.870;20.682;2022-08-02T03:45:01;17.10;99.90
21762;DHT22;11203;50.870;20.682;2022-08-02T03:47:29;17.10;99.90
21762;DHT22;11203;50.870;20.682;2022-08-02T03:49:56;17.10;99.90
21762;DHT22;11203;50.870;20.682;2022-08-02T03:52:22;17.20;99.90
21762;DHT22;11203;50.870;20.682;2022-08-02T03:54:49;17.20;99.90
21762;DHT22;11203;50.870;20.682;2022-08-02T03:57:15;17.20;99.90
21762;DHT22;11203;50.870;20.682;2022-08-02T03:59:43;17.30;99.90
21762;DHT22;11203;50.870;20.682;2022-08-02T04:02:11;17.30;99.90
21762;DHT22;11203;50.870;20.682;2022-08-02T04:04:37;17.40;99.90
21762;DHT22;11203;50.870;20.682;2022-08-02T04:07:03;17.40;99.90
21762;DHT22;11203;50.870;20.682;2022-08-02T04:09:30;17.40;99.90
21762;DHT22;11203;50.870;20.682;2022-08-02T04:11:56;17.50;99.90
21762;DHT22;11203;50.870;20.682;2022-08-02T04:14:22;17.50;99.90
21762;DHT22;11203;50.870;20.682;2022-08-02T04:17:01;17.50;99.90
21762;DHT22;11203;50.870;20.682;2022-08-02T04:19:36;17.50;99.90
21762;DHT22;11203;50.870;20.682;2022-08-02T04:22:03;17.60;99.90
21762;DHT22;11203;50.870;20.682;2022-08-02T04:24:40;17.60;99.90
21762;DHT22;11203;50.870;20.682;2022-08-02T04:27:12;17.60;99.90
21762;DHT22;11203;50.870;20.682;2022-08-02T04:29:39;17.60;99.90
21762;DHT22;11203;50.870;20.682;2022-08-02T04:32:06;17.60;99.90
21762;DHT22;11203;50.870;20.682;2022-08-02T04:34:33;17.60;99.90
21762;DHT22;11203;50.870;20.682;2022-08-02T04:36:59;17.70;99.90
21762;DHT22;11203;50.870;20.682;2022-08-02T04:39:26;17.70;99.90
21762;DHT22;11203;50.870;20.682;2022-08-02T04:41:53;17.80;99.90
21762;DHT22;11203;50.870;20.682;2022-08-02T04:44:19;17.80;99.90
21762;DHT22;11203;50.870;20.682;2022-08-02T04:46:45;17.80;99.90
21762;DHT22;11203;50.870;20.682;2022-08-02T04:49:11;17.80;99.90
21762;DHT22;11203;50.870;20.682;2022-08-02T04:51:39;17.80;99.90
21762;DHT22;11203;50.870;20.682;2022-08-02T04:54:08;17.80;99.90
21762;DHT22;11203;50.870;20.682;2022-08-02T04:56:34;17.80;99.90
21762;DHT22;11203;50.870;20.682;2022-08-02T04:59:00;17.90;99.90
21762;DHT22;11203;50.870;20.682;2022-08-02T05:01:26;17.90;99.90
21762;DHT22;11203;50.870;20.682;2022-08-02T05:03:52;17.90;99.90
21762;DHT22;11203;50.870;20.682;2022-08-02T05:06:18;18.00;99.90
21762;DHT22;11203;50.870;20.682;2022-08-02T05:08:46;17.90;99.90
21762;DHT22;11203;50.870;20.682;2022-08-02T05:11:12;18.00;99.90
21762;DHT22;11203;50.870;20.682;2022-08-02T05:13:42;18.00;99.90
21762;DHT22;11203;50.870;20.682;2022-08-02T05:16:09;18.00;99.90
21762;DHT22;11203;50.870;20.682;2022-08-02T05:18:35;18.00;99.90
21762;DHT22;11203;50.870;20.682;2022-08-02T05:21:01;18.10;99.90
21762;DHT22;11203;50.870;20.682;2022-08-02T05:23:27;18.00;99.90
21762;DHT22;11203;50.870;20.682;2022-08-02T05:25:53;18.10;99.90
21762;DHT22;11203;50.870;20.682;2022-08-02T05:28:19;18.10;99.90
21762;DHT22;11203;50.870;20.682;2022-08-02T05:30:45;18.10;99.90
21762;DHT22;11203;50.870;20.682;2022-08-02T05:33:11;18.10;99.90
21762;DHT22;11203;50.870;20.682;2022-08-02T05:35:37;18.10;99.90
21762;DHT22;11203;50.870;20.682;2022-08-02T05:38:02;18.10;99.90
21762;DHT22;11203;50.870;20.682;2022-08-02T05:40:29;18.10;99.90
21762;DHT22;11203;50.870;20.682;2022-08-02T05:42:54;18.10;99.90
21762;DHT22;11203;50.870;20.682;2022-08-02T05:45:21;18.10;99.90
21762;DHT22;11203;50.870;20.682;2022-08-02T05:47:47;18.10;99.90
21762;DHT22;11203;50.870;20.682;2022-08-02T05:50:13;18.10;99.90
21762;DHT22;11203;50.870;20.682;2022-08-02T05:52:51;18.20;99.90
21762;DHT22;11203;50.870;20.682;2022-08-02T05:55:27;18.20;99.90
21762;DHT22;11203;50.870;20.682;2022-08-02T05:58:20;18.30;99.90
21762;DHT22;11203;50.870;20.682;2022-08-02T06:00:54;18.30;99.90
21762;DHT22;11203;50.870;20.682;2022-08-02T06:03:25;18.30;99.90
21762;DHT22;11203;50.870;20.682;2022-08-02T06:06:11;18.30;99.90
21762;DHT22;11203;50.870;20.682;2022-08-02T06:08:43;18.30;99.90
21762;DHT22;11203;50.870;20.682;2022-08-02T06:11:13;18.40;99.90
21762;DHT22;11203;50.870;20.682;2022-08-02T06:13:43;18.50;99.90
21762;DHT22;11203;50.870;20.682;2022-08-02T06:16:10;18.50;99.90
21762;DHT22;11203;50.870;20.682;2022-08-02T06:18:36;18.60;99.90
21762;DHT22;11203;50.870;20.682;2022-08-02T06:21:05;18.60;99.90
21762;DHT22;11203;50.870;20.682;2022-08-02T06:23:33;18.70;99.90
21762;DHT22;11203;50.870;20.682;2022-08-02T06:26:08;18.80;99.90
21762;DHT22;11203;50.870;20.682;2022-08-02T06:28:38;18.80;99.90
21762;DHT22;11203;50.870;20.682;2022-08-02T06:31:06;19.00;99.90
21762;DHT22;11203;50.870;20.682;2022-08-02T06:33:33;19.10;99.90
21762;DHT22;11203;50.870;20.682;2022-08-02T06:36:02;19.20;99.90
21762;DHT22;11203;50.870;20.682;2022-08-02T06:38:54;19.20;99.90
21762;DHT22;11203;50.870;20.682;2022-08-02T06:41:24;19.40;99.90
21762;DHT22;11203;50.870;20.682;2022-08-02T06:43:54;19.40;99.90
21762;DHT22;11203;50.870;20.682;2022-08-02T06:46:24;19.50;99.90
21762;DHT22;11203;50.870;20.682;2022-08-02T06:48:50;19.50;99.90
21762;DHT22;11203;50.870;20.682;2022-08-02T06:51:16;19.60;99.90
21762;DHT22;11203;50.870;20.682;2022-08-02T06:53:43;19.60;99.90
21762;DHT22;11203;50.870;20.682;2022-08-02T06:56:10;19.50;99.90
21762;DHT22;11203;50.870;20.682;2022-08-02T06:58:36;19.60;99.90
21762;DHT22;11203;50.870;20.682;2022-08-02T07:01:02;19.40;99.90
21762;DHT22;11203;50.870;20.682;2022-08-02T07:03:36;19.40;99.90
21762;DHT22;11203;50.870;20.682;2022-08-02T07:06:03;19.40;99.90
21762;DHT22;11203;50.870;20.682;2022-08-02T07:08:30;19.40;99.90
21762;DHT22;11203;50.870;20.682;2022-08-02T07:10:58;19.30;99.90
21762;DHT22;11203;50.870;20.682;2022-08-02T07:13:26;19.30;99.90
21762;DHT22;11203;50.870;20.682;2022-08-02T07:15:53;19.30;99.90
21762;DHT22;11203;50.870;20.682;2022-08-02T07:18:20;19.30;99.90
21762;DHT22;11203;50.870;20.682;2022-08-02T07:20:47;19.40;99.90
21762;DHT22;11203;50.870;20.682;2022-08-02T07:23:13;19.30;99.90
21762;DHT22;11203;50.870;20.682;2022-08-02T07:25:40;19.30;99.90
21762;DHT22;11203;50.870;20.682;2022-08-02T07:28:08;19.20;99.90
21762;DHT22;11203;50.870;20.682;2022-08-02T07:30:35;19.20;99.90
21762;DHT22;11203;50.870;20.682;2022-08-02T07:33:02;19.20;99.90
21762;DHT22;11203;50.870;20.682;2022-08-02T07:35:30;19.30;99.90
21762;DHT22;11203;50.870;20.682;2022-08-02T07:37:56;19.20;99.90
21762;DHT22;11203;50.870;20.682;2022-08-02T07:40:22;19.20;99.90
21762;DHT22;11203;50.870;20.682;2022-08-02T07:42:51;19.20;99.90
21762;DHT22;11203;50.870;20.682;2022-08-02T07:45:19;19.30;99.90
21762;DHT22;11203;50.870;20.682;2022-08-02T07:47:45;19.30;99.90
21762;DHT22;11203;50.870;20.682;2022-08-02T07:50:14;19.30;99.90
21762;DHT22;11203;50.870;20.682;2022-08-02T07:52:41;19.30;99.90
21762;DHT22;11203;50.870;20.682;2022-08-02T07:55:08;19.20;99.90
21762;DHT22;11203;50.870;20.682;2022-08-02T07:57:36;19.20;99.90
21762;DHT22;11203;50.870;20.682;2022-08-02T08:00:04;19.20;99.90
21762;DHT22;11203;50.870;20.682;2022-08-02T08:02:34;19.20;99.90
21762;DHT22;11203;50.870;20.682;2022-08-02T08:05:00;19.30;99.90
21762;DHT22;11203;50.870;20.682;2022-08-02T08:07:27;19.30;99.90
21762;DHT22;11203;50.870;20.682;2022-08-02T08:09:53;19.30;99.90
21762;DHT22;11203;50.870;20.682;2022-08-02T08:12:19;19.30;99.90
21762;DHT22;11203;50.870;20.682;2022-08-02T08:14:46;19.30;99.90
21762;DHT22;11203;50.870;20.682;2022-08-02T08:17:12;19.40;99.90
21762;DHT22;11203;50.870;20.682;2022-08-02T08:19:38;19.40;99.90
21762;DHT22;11203;50.870;20.682;2022-08-02T08:22:04;19.40;99.90
21762;DHT22;11203;50.870;20.682;2022-08-02T08:24:30;19.50;99.90
21762;DHT22;11203;50.870;20.682;2022-08-02T08:26:56;19.50;99.90
21762;DHT22;11203;50.870;20.682;2022-08-02T08:29:23;19.60;99.90
21762;DHT22;11203;50.870;20.682;2022-08-02T08:31:49;19.70;99.90
21762;DHT22;11203;50.870;20.682;2022-08-02T08:34:15;19.80;99.90
21762;DHT22;11203;50.870;20.682;2022-08-02T08:36:41;19.80;99.90
21762;DHT22;11203;50.870;20.682;2022-08-02T08:39:08;19.80;99.90
21762;DHT22;11203;50.870;20.682;2022-08-02T08:41:36;19.90;99.90
21762;DHT22;11203;50.870;20.682;2022-08-02T08:44:02;19.90;99.90
21762;DHT22;11203;50.870;20.682;2022-08-02T08:46:30;20.00;99.90
21762;DHT22;11203;50.870;20.682;2022-08-02T08:49:11;20.00;99.90
21762;DHT22;11203;50.870;20.682;2022-08-02T08:51:42;20.00;99.90
21762;DHT22;11203;50.870;20.682;2022-08-02T08:54:14;20.00;99.90
21762;DHT22;11203;50.870;20.682;2022-08-02T08:56:42;20.10;99.90
21762;DHT22;11203;50.870;20.682;2022-08-02T08:59:08;20.00;99.90
21762;DHT22;11203;50.870;20.682;2022-08-02T09:01:35;20.10;99.90
21762;DHT22;11203;50.870;20.682;2022-08-02T09:04:01;20.20;99.90
21762;DHT22;11203;50.870;20.682;2022-08-02T09:06:27;20.20;99.90
21762;DHT22;11203;50.870;20.682;2022-08-02T09:08:53;20.30;99.90
21762;DHT22;11203;50.870;20.682;2022-08-02T09:11:24;20.30;99.90
21762;DHT22;11203;50.870;20.682;2022-08-02T09:13:55;20.50;99.90
21762;DHT22;11203;50.870;20.682;2022-08-02T09:16:42;20.50;99.90
21762;DHT22;11203;50.870;20.682;2022-08-02T09:19:22;20.40;99.90
21762;DHT22;11203;50.870;20.682;2022-08-02T09:22:01;20.40;99.90
21762;DHT22;11203;50.870;20.682;2022-08-02T09:24:43;20.30;99.90
21762;DHT22;11203;50.870;20.682;2022-08-02T09:27:16;20.30;99.90
21762;DHT22;11203;50.870;20.682;2022-08-02T09:29:49;20.30;99.90
21762;DHT22;11203;50.870;20.682;2022-08-02T09:32:17;20.30;99.90
21762;DHT22;11203;50.870;20.682;2022-08-02T09:34:45;20.20;99.90
21762;DHT22;11203;50.870;20.682;2022-08-02T09:37:41;20.20;99.90
21762;DHT22;11203;50.870;20.682;2022-08-02T09:40:07;20.10;99.90
21762;DHT22;11203;50.870;20.682;2022-08-02T09:42:35;20.10;99.90
21762;DHT22;11203;50.870;20.682;2022-08-02T09:45:01;20.10;99.90
21762;DHT22;11203;50.870;20.682;2022-08-02T09:47:29;20.00;99.90
21762;DHT22;11203;50.870;20.682;2022-08-02T09:49:57;20.00;99.90
21762;DHT22;11203;50.870;20.682;2022-08-02T09:52:27;20.00;99.90
21762;DHT22;11203;50.870;20.682;2022-08-02T09:54:54;20.20;99.90
21762;DHT22;11203;50.870;20.682;2022-08-02T09:57:28;20.30;99.90
21762;DHT22;11203;50.870;20.682;2022-08-02T09:59:56;20.40;99.90
21762;DHT22;11203;50.870;20.682;2022-08-02T10:02:22;20.40;99.90
21762;DHT22;11203;50.870;20.682;2022-08-02T10:04:49;20.50;99.90
21762;DHT22;11203;50.870;20.682;2022-08-02T10:07:16;20.60;99.90
21762;DHT22;11203;50.870;20.682;2022-08-02T10:09:44;20.70;99.90
21762;DHT22;11203;50.870;20.682;2022-08-02T10:12:12;20.80;1.00
21762;DHT22;11203;50.870;20.682;2022-08-02T10:14:38;20.80;99.90
21762;DHT22;11203;50.870;20.682;2022-08-02T10:17:05;20.80;99.90
21762;DHT22;11203;50.870;20.682;2022-08-02T10:19:32;20.70;99.90
21762;DHT22;11203;50.870;20.682;2022-08-02T10:22:10;20.70;1.00
21762;DHT22;11203;50.870;20.682;2022-08-02T10:24:39;20.90;1.00
21762;DHT22;11203;50.870;20.682;2022-08-02T10:27:13;21.00;1.00
21762;DHT22;11203;50.870;20.682;2022-08-02T10:29:48;21.10;99.90
21762;DHT22;11203;50.870;20.682;2022-08-02T10:32:42;21.10;95.20
21762;DHT22;11203;50.870;20.682;2022-08-02T10:35:12;21.10;1.00
21762;DHT22;11203;50.870;20.682;2022-08-02T10:37:43;21.00;1.00
21762;DHT22;11203;50.870;20.682;2022-08-02T10:40:11;21.00;1.00
21762;DHT22;11203;50.870;20.682;2022-08-02T10:42:55;20.90;83.50
21762;DHT22;11203;50.870;20.682;2022-08-02T10:45:25;20.90;99.90
21762;DHT22;11203;50.870;20.682;2022-08-02T10:48:01;20.80;1.00
21762;DHT22;11203;50.870;20.682;2022-08-02T10:50:51;20.70;1.00
21762;DHT22;11203;50.870;20.682;2022-08-02T10:53:31;20.60;1.00
21762;DHT22;11203;50.870;20.682;2022-08-02T10:56:00;20.60;1.00
21762;DHT22;11203;50.870;20.682;2022-08-02T10:58:29;20.70;64.30
21762;DHT22;11203;50.870;20.682;2022-08-02T11:00:58;20.80;99.90
21762;DHT22;11203;50.870;20.682;2022-08-02T11:08:28;21.40;99.90
21762;DHT22;11203;50.870;20.682;2022-08-02T11:11:16;21.60;1.00
21762;DHT22;11203;50.870;20.682;2022-08-02T11:19:23;21.60;1.00
21762;DHT22;11203;50.870;20.682;2022-08-02T11:22:09;21.90;99.90
21762;DHT22;11203;50.870;20.682;2022-08-02T11:24:37;22.10;47.60
21762;DHT22;11203;50.870;20.682;2022-08-02T11:27:08;22.20;99.90
21762;DHT22;11203;50.870;20.682;2022-08-02T11:29:44;22.30;99.90
21762;DHT22;11203;50.870;20.682;2022-08-02T11:32:21;22.60;99.90
21762;DHT22;11203;50.870;20.682;2022-08-02T11:34:50;22.70;1.00
21762;DHT22;11203;50.870;20.682;2022-08-02T11:39:53;22.80;99.90
21762;DHT22;11203;50.870;20.682;2022-08-02T11:42:20;22.60;1.00
21762;DHT22;11203;50.870;20.682;2022-08-02T11:44:46;22.60;1.00
21762;DHT22;11203;50.870;20.682;2022-08-02T11:47:13;22.70;99.90
21762;DHT22;11203;50.870;20.682;2022-08-02T11:49:40;22.90;99.90
21762;DHT22;11203;50.870;20.682;2022-08-02T11:52:08;22.90;1.00
21762;DHT22;11203;50.870;20.682;2022-08-02T11:54:37;22.90;99.90
21762;DHT22;11203;50.870;20.682;2022-08-02T11:59:49;22.70;14.70
21762;DHT22;11203;50.870;20.682;2022-08-02T12:02:35;22.60;99.90
21762;DHT22;11203;50.870;20.682;2022-08-02T12:05:04;22.50;1.00
21762;DHT22;11203;50.870;20.682;2022-08-02T12:07:38;22.50;1.00
21762;DHT22;11203;50.870;20.682;2022-08-02T12:10:09;22.70;99.90
21762;DHT22;11203;50.870;20.682;2022-08-02T12:12:56;22.70;1.00
21762;DHT22;11203;50.870;20.682;2022-08-02T12:15:42;22.50;1.00
21762;DHT22;11203;50.870;20.682;2022-08-02T12:18:15;22.30;99.90
21762;DHT22;11203;50.870;20.682;2022-08-02T12:21:02;22.40;99.90
21762;DHT22;11203;50.870;20.682;2022-08-02T12:23:29;22.50;99.90
21762;DHT22;11203;50.870;20.682;2022-08-02T12:26:05;22.30;99.90
21762;DHT22;11203;50.870;20.682;2022-08-02T12:28:36;22.30;99.90
21762;DHT22;11203;50.870;20.682;2022-08-02T12:31:07;22.30;99.90
21762;DHT22;11203;50.870;20.682;2022-08-02T12:33:53;22.50;99.90
21762;DHT22;11203;50.870;20.682;2022-08-02T12:36:22;22.50;1.00
21762;DHT22;11203;50.870;20.682;2022-08-02T12:38:52;22.60;1.00
21762;DHT22;11203;50.870;20.682;2022-08-02T12:41:23;22.70;1.00
21762;DHT22;11203;50.870;20.682;2022-08-02T12:43:51;22.80;1.00
21762;DHT22;11203;50.870;20.682;2022-08-02T12:46:19;22.80;1.00
21762;DHT22;11203;50.870;20.682;2022-08-02T12:48:46;22.80;99.90
21762;DHT22;11203;50.870;20.682;2022-08-02T12:51:30;23.00;1.00
21762;DHT22;11203;50.870;20.682;2022-08-02T12:54:37;23.10;99.90
21762;DHT22;11203;50.870;20.682;2022-08-02T12:57:17;23.00;99.90
21762;DHT22;11203;50.870;20.682;2022-08-02T12:59:52;22.70;95.00
21762;DHT22;11203;50.870;20.682;2022-08-02T13:02:18;22.70;99.90
21762;DHT22;11203;50.870;20.682;2022-08-02T13:04:45;22.70;99.90
21762;DHT22;11203;50.870;20.682;2022-08-02T13:07:11;22.80;99.90
21762;DHT22;11203;50.870;20.682;2022-08-02T13:09:38;22.70;96.40
21762;DHT22;11203;50.870;20.682;2022-08-02T13:12:07;22.60;27.30
21762;DHT22;11203;50.870;20.682;2022-08-02T13:14:34;22.80;44.00
21762;DHT22;11203;50.870;20.682;2022-08-02T13:17:00;22.90;1.00
21762;DHT22;11203;50.870;20.682;2022-08-02T13:19:26;22.90;1.00
21762;DHT22;11203;50.870;20.682;2022-08-02T13:21:52;22.90;1.00
21762;DHT22;11203;50.870;20.682;2022-08-02T13:24:18;23.00;1.00
21762;DHT22;11203;50.870;20.682;2022-08-02T13:26:45;23.10;1.00
21762;DHT22;11203;50.870;20.682;2022-08-02T13:29:11;23.20;1.00
21762;DHT22;11203;50.870;20.682;2022-08-02T13:31:38;23.20;1.00
21762;DHT22;11203;50.870;20.682;2022-08-02T13:34:05;23.40;1.00
21762;DHT22;11203;50.870;20.682;2022-08-02T13:36:33;23.40;1.00
21762;DHT22;11203;50.870;20.682;2022-08-02T13:39:03;23.20;1.00
21762;DHT22;11203;50.870;20.682;2022-08-02T13:41:31;23.30;1.00
21762;DHT22;11203;50.870;20.682;2022-08-02T13:43:56;23.40;1.00
21762;DHT22;11203;50.870;20.682;2022-08-02T13:46:23;23.50;1.00
21762;DHT22;11203;50.870;20.682;2022-08-02T13:48:49;23.70;1.00
21762;DHT22;11203;50.870;20.682;2022-08-02T13:51:15;23.80;1.00
21762;DHT22;11203;50.870;20.682;2022-08-02T13:53:41;23.60;1.00
21762;DHT22;11203;50.870;20.682;2022-08-02T13:56:07;23.70;1.00
21762;DHT22;11203;50.870;20.682;2022-08-02T13:58:33;23.70;1.00
21762;DHT22;11203;50.870;20.682;2022-08-02T14:00:59;23.70;1.00
21762;DHT22;11203;50.870;20.682;2022-08-02T14:03:25;23.70;1.00
21762;DHT22;11203;50.870;20.682;2022-08-02T14:05:51;23.80;1.00
21762;DHT22;11203;50.870;20.682;2022-08-02T14:08:18;23.80;99.90
21762;DHT22;11203;50.870;20.682;2022-08-02T14:10:49;24.00;99.90
21762;DHT22;11203;50.870;20.682;2022-08-02T14:13:16;23.90;99.90
21762;DHT22;11203;50.870;20.682;2022-08-02T14:15:42;24.00;99.90
21762;DHT22;11203;50.870;20.682;2022-08-02T14:18:09;24.00;99.90
21762;DHT22;11203;50.870;20.682;2022-08-02T14:20:36;24.00;99.90
21762;DHT22;11203;50.870;20.682;2022-08-02T14:23:02;24.10;99.90
21762;DHT22;11203;50.870;20.682;2022-08-02T14:25:28;24.10;99.90
21762;DHT22;11203;50.870;20.682;2022-08-02T14:27:54;24.00;99.90
21762;DHT22;11203;50.870;20.682;2022-08-02T14:30:20;24.20;99.90
21762;DHT22;11203;50.870;20.682;2022-08-02T14:32:48;24.30;99.90
21762;DHT22;11203;50.870;20.682;2022-08-02T14:35:14;24.40;99.90
21762;DHT22;11203;50.870;20.682;2022-08-02T14:37:40;24.30;99.90
21762;DHT22;11203;50.870;20.682;2022-08-02T14:40:07;24.20;99.90
21762;DHT22;11203;50.870;20.682;2022-08-02T14:42:34;24.30;99.90
21762;DHT22;11203;50.870;20.682;2022-08-02T14:44:59;24.10;99.90
21762;DHT22;11203;50.870;20.682;2022-08-02T14:47:27;24.10;99.90
21762;DHT22;11203;50.870;20.682;2022-08-02T14:49:53;24.10;76.00
21762;DHT22;11203;50.870;20.682;2022-08-02T14:52:19;24.20;99.60
21762;DHT22;11203;50.870;20.682;2022-08-02T14:54:45;24.20;93.00
21762;DHT22;11203;50.870;20.682;2022-08-02T14:57:11;24.30;99.90
21762;DHT22;11203;50.870;20.682;2022-08-02T14:59:37;24.40;66.10
21762;DHT22;11203;50.870;20.682;2022-08-02T15:02:03;24.40;42.30
21762;DHT22;11203;50.870;20.682;2022-08-02T15:04:29;24.40;1.00
21762;DHT22;11203;50.870;20.682;2022-08-02T15:06:59;24.50;1.00
21762;DHT22;11203;50.870;20.682;2022-08-02T15:09:26;24.40;1.00
21762;DHT22;11203;50.870;20.682;2022-08-02T15:11:52;24.40;1.00
21762;DHT22;11203;50.870;20.682;2022-08-02T15:14:21;24.40;1.00
21762;DHT22;11203;50.870;20.682;2022-08-02T15:16:48;24.30;1.00
21762;DHT22;11203;50.870;20.682;2022-08-02T15:19:14;24.40;1.00
21762;DHT22;11203;50.870;20.682;2022-08-02T15:21:39;24.30;1.00
21762;DHT22;11203;50.870;20.682;2022-08-02T15:24:06;24.30;1.00
21762;DHT22;11203;50.870;20.682;2022-08-02T15:26:32;24.10;1.00
21762;DHT22;11203;50.870;20.682;2022-08-02T15:28:57;24.10;1.00
21762;DHT22;11203;50.870;20.682;2022-08-02T15:31:24;24.00;1.00
21762;DHT22;11203;50.870;20.682;2022-08-02T15:33:49;23.90;1.00
21762;DHT22;11203;50.870;20.682;2022-08-02T15:36:15;23.80;1.00
21762;DHT22;11203;50.870;20.682;2022-08-02T15:38:42;23.80;1.00
21762;DHT22;11203;50.870;20.682;2022-08-02T15:41:08;23.70;1.00
21762;DHT22;11203;50.870;20.682;2022-08-02T15:43:37;23.80;1.00
21762;DHT22;11203;50.870;20.682;2022-08-02T15:46:03;23.80;1.00
21762;DHT22;11203;50.870;20.682;2022-08-02T15:48:31;23.80;1.00
21762;DHT22;11203;50.870;20.682;2022-08-02T15:50:56;23.70;1.00
21762;DHT22;11203;50.870;20.682;2022-08-02T15:53:23;23.80;1.00
21762;DHT22;11203;50.870;20.682;2022-08-02T15:55:49;23.80;1.00